createdAt,value
2022-09-26T00:02:04.243Z,98353.81
2022-09-26T00:07:07.231Z,98351.97
2022-09-26T00:12:10.223Z,98346.22
2022-09-26T00:17:14.559Z,98343.28
2022-09-26T00:22:17.490Z,98340.97
2022-09-26T00:27:21.043Z,98340.59
2022-09-26T00:32:25.731Z,98338.50
2022-09-26T00:37:28.678Z,98330.34
2022-09-26T00:42:31.676Z,98326.66
2022-09-26T00:47:42.762Z,98330.06
2022-09-26T00:52:50.617Z,98327.50
2022-09-26T00:57:58.315Z,98322.59
2022-09-26T01:03:03.048Z,98316.03
2022-09-26T01:08:07.273Z,98319.16
2022-09-26T01:13:11.529Z,98315.66
2022-09-26T01:18:15.943Z,98319.81
2022-09-26T01:23:55.310Z,98310.56
2022-09-26T01:29:16.753Z,98316.13
2022-09-26T01:34:27.730Z,98306.13
2022-09-26T01:39:42.753Z,98307.28
2022-09-26T01:44:52.135Z,98303.72
2022-09-26T01:50:02.496Z,98312.94
2022-09-26T01:55:11.150Z,98304.69
2022-09-26T02:00:14.517Z,98304.75
2022-09-26T02:05:26.424Z,98301.16
2022-09-26T02:10:36.021Z,98299.66
2022-09-26T02:15:40.534Z,98293.31
2022-09-26T02:20:50.110Z,98288.38
2022-09-26T02:25:54.065Z,98291.59
2022-09-26T02:30:59.475Z,98278.41
2022-09-26T02:36:05.305Z,98281.69
2022-09-26T02:41:17.813Z,98284.72
2022-09-26T02:46:49.213Z,98279.81
2022-09-26T02:52:08.451Z,98287.47
2022-09-26T02:57:23.026Z,98282.16
2022-09-26T03:02:31.829Z,98285.19
2022-09-26T03:07:58.450Z,98277.38
2022-09-26T03:13:07.618Z,98273.91
2022-09-26T03:18:14.505Z,98270.00
2022-09-26T03:23:22.799Z,98271.84
2022-09-26T03:28:26.072Z,98263.78
2022-09-26T03:33:29.706Z,98257.25
2022-09-26T03:38:34.148Z,98258.09
2022-09-26T03:43:58.542Z,98266.38
2022-09-26T03:49:08.908Z,98264.81
2022-09-26T03:54:14.648Z,98264.34
2022-09-26T03:59:17.812Z,98270.06
2022-09-26T04:04:22.022Z,98260.59
2022-09-26T04:09:26.713Z,98254.19
2022-09-26T04:14:32.159Z,98249.66
2022-09-26T04:19:35.951Z,98248.59
2022-09-26T04:24:41.695Z,98237.44
2022-09-26T04:29:45.188Z,98241.25
2022-09-26T04:34:53.528Z,98239.84
2022-09-26T04:39:57.769Z,98242.56
2022-09-26T04:45:01.047Z,98248.94
2022-09-26T04:50:04.235Z,98247.81
2022-09-26T04:55:09.434Z,98241.91
2022-09-26T05:00:14.571Z,98239.63
2022-09-26T05:05:17.698Z,98240.56
2022-09-26T05:10:21.972Z,98236.84
2022-09-26T05:15:31.140Z,98226.97
2022-09-26T05:20:34.492Z,98233.94
2022-09-26T05:26:00.196Z,98222.97
2022-09-26T05:31:03.165Z,98230.63
2022-09-26T05:36:08.396Z,98230.66
2022-09-26T05:41:13.537Z,98230.66
2022-09-26T05:46:17.023Z,98235.09
2022-09-26T05:51:26.809Z,98239.72
2022-09-26T05:56:32.569Z,98243.59
2022-09-26T06:01:55.710Z,98254.88
2022-09-26T06:07:21.951Z,98248.28
2022-09-26T06:12:28.517Z,98247.09
2022-09-26T06:17:31.476Z,98242.97
2022-09-26T06:22:40.423Z,98239.84
2022-09-26T06:27:44.718Z,98230.84
2022-09-26T06:32:47.648Z,98227.44
2022-09-26T06:38:10.835Z,98228.50
2022-09-26T06:43:15.246Z,98222.63
2022-09-26T06:48:56.331Z,98224.56
2022-09-26T06:54:22.946Z,98219.34
2022-09-26T06:59:27.398Z,98212.09
2022-09-26T07:04:39.351Z,98203.69
2022-09-26T07:09:52.089Z,98208.28
2022-09-26T07:15:19.105Z,98207.84
2022-09-26T07:20:22.581Z,98199.16
2022-09-26T07:25:41.539Z,98201.38
2022-09-26T07:30:46.016Z,98187.38
2022-09-26T07:36:05.282Z,98188.53
2022-09-26T07:41:10.924Z,98190.44
2022-09-26T07:46:34.348Z,98183.03
2022-09-26T07:51:39.363Z,98189.53
2022-09-26T07:56:46.627Z,98181.63
2022-09-26T08:02:23.106Z,98176.34
2022-09-26T08:07:26.157Z,98174.81
2022-09-26T08:12:38.369Z,98178.78
2022-09-26T08:18:04.077Z,98176.00
2022-09-26T08:23:07.241Z,98170.34
2022-09-26T08:28:12.942Z,98170.75
2022-09-26T08:33:19.077Z,98171.84
2022-09-26T08:38:22.635Z,98176.41
2022-09-26T08:43:57.729Z,98159.94
2022-09-26T08:49:39.743Z,98168.84
2022-09-26T08:54:45.453Z,98169.47
2022-09-26T08:59:50.123Z,98165.97
2022-09-26T09:05:02.189Z,98166.03
2022-09-26T09:10:12.499Z,98168.41
2022-09-26T09:15:40.825Z,98164.59
2022-09-26T09:21:03.155Z,98161.47
2022-09-26T09:32:04.725Z,98155.75
2022-09-26T09:37:44.435Z,98148.41
2022-09-26T09:43:17.601Z,98130.34
2022-09-26T09:48:20.939Z,98136.47
2022-09-26T09:53:37.861Z,98134.69
2022-09-26T09:58:59.383Z,98127.25
2022-09-26T10:04:10.388Z,98128.59
2022-09-26T10:09:38.694Z,98115.47
2022-09-26T10:15:06.816Z,98103.34
2022-09-26T10:20:36.803Z,98103.09
2022-09-26T10:25:48.544Z,98098.88
2022-09-26T10:30:55.672Z,98093.28
2022-09-26T10:36:10.900Z,98093.84
2022-09-26T10:41:25.559Z,98081.53
2022-09-26T10:46:32.296Z,98087.50
2022-09-26T10:52:04.597Z,98081.59
2022-09-26T10:57:19.701Z,98075.09
2022-09-26T11:02:25.989Z,98071.03
2022-09-26T11:07:34.876Z,98064.38
2022-09-26T11:13:03.522Z,98051.06
2022-09-26T11:18:06.842Z,98056.06
2022-09-26T11:23:20.958Z,98048.06
2022-09-26T11:28:30.940Z,98044.59
2022-09-26T11:33:55.140Z,98031.97
2022-09-26T11:39:38.801Z,98032.09
2022-09-26T11:44:59.724Z,98021.03
2022-09-26T11:50:52.793Z,98030.63
2022-09-26T11:56:22.912Z,98019.94
2022-09-26T12:01:43.269Z,98015.69
2022-09-26T12:06:55.145Z,98010.63
2022-09-26T12:12:07.983Z,97992.72
2022-09-26T12:17:22.092Z,97991.94
2022-09-26T12:22:36.097Z,97989.59
2022-09-26T12:27:45.886Z,97982.06
2022-09-26T12:33:10.009Z,97978.00
2022-09-26T12:38:32.556Z,97967.03
2022-09-26T12:43:55.621Z,97960.41
2022-09-26T12:49:24.736Z,97954.00
2022-09-26T12:54:48.351Z,97948.06
2022-09-26T13:00:14.016Z,97949.78
2022-09-26T13:05:39.230Z,97940.91
2022-09-26T13:10:54.451Z,97930.00
2022-09-26T13:16:20.026Z,97926.16
2022-09-26T13:21:42.090Z,97922.50
2022-09-26T13:26:49.948Z,97910.53
2022-09-26T13:31:58.868Z,97906.34
2022-09-26T13:37:08.504Z,97900.53
2022-09-26T13:42:20.863Z,97897.13
2022-09-26T13:47:36.309Z,97900.94
2022-09-26T13:52:52.450Z,97888.03
2022-09-26T13:58:05.325Z,97878.28
2022-09-26T14:03:37.691Z,97878.44
2022-09-26T14:09:25.689Z,97863.31
2022-09-26T14:14:44.022Z,97864.50
2022-09-26T14:19:49.765Z,97863.25
2022-09-26T14:24:54.764Z,97856.31
2022-09-26T14:30:07.998Z,97853.06
2022-09-26T14:35:19.457Z,97843.78
2022-09-26T14:40:33.891Z,97851.03
2022-09-26T14:45:49.756Z,97839.38
2022-09-26T14:50:56.436Z,97835.63
2022-09-26T14:56:06.222Z,97826.91
2022-09-26T15:01:15.223Z,97831.34
2022-09-26T15:06:18.465Z,97830.00
2022-09-26T15:11:33.052Z,97817.97
2022-09-26T15:16:42.211Z,97812.41
2022-09-26T15:21:50.269Z,97801.31
2022-09-26T15:26:56.256Z,97806.31
2022-09-26T15:31:59.926Z,97807.44
2022-09-26T15:37:15.589Z,97796.88
2022-09-26T15:42:43.731Z,97789.50
2022-09-26T15:47:46.711Z,97786.63
2022-09-26T15:52:55.207Z,97774.69
2022-09-26T15:58:03.376Z,97774.88
2022-09-26T16:03:45.959Z,97782.19
2022-09-26T16:08:54.168Z,97768.59
2022-09-26T16:13:58.705Z,97763.06
2022-09-26T16:19:05.349Z,97768.63
2022-09-26T16:24:32.343Z,97757.56
2022-09-26T16:29:38.335Z,97758.81
2022-09-26T16:34:41.463Z,97767.50
2022-09-26T16:39:55.506Z,97757.84
2022-09-26T16:45:05.924Z,97757.25
2022-09-26T16:50:20.145Z,97761.16
2022-09-26T16:55:24.784Z,97758.78
2022-09-26T17:00:54.988Z,97755.59
2022-09-26T17:06:00.176Z,97755.91
2022-09-26T17:11:05.394Z,97762.50
2022-09-26T17:16:11.234Z,97766.19
2022-09-26T17:21:14.785Z,97759.94
2022-09-26T17:26:23.969Z,97750.38
2022-09-26T17:31:28.675Z,97754.63
2022-09-26T17:36:31.822Z,97747.03
2022-09-26T17:41:34.843Z,97750.44
2022-09-26T17:46:42.425Z,97753.09
2022-09-26T17:51:45.632Z,97743.06
2022-09-26T17:56:49.519Z,97739.41
2022-09-26T18:01:58.394Z,97746.78
2022-09-26T18:07:04.496Z,97739.94
2022-09-26T18:12:10.616Z,97746.63
2022-09-26T18:17:16.517Z,97740.38
2022-09-26T18:22:22.168Z,97736.94
2022-09-26T18:27:25.313Z,97729.28
2022-09-26T18:32:33.387Z,97732.44
2022-09-26T18:37:36.411Z,97724.19
2022-09-26T18:42:39.585Z,97711.91
2022-09-26T18:47:45.218Z,97720.28
2022-09-26T18:52:48.292Z,97722.84
2022-09-26T18:58:08.706Z,97704.91
2022-09-26T19:03:14.888Z,97700.44
2022-09-26T19:08:37.003Z,97701.28
2022-09-26T19:13:40.417Z,97696.28
2022-09-26T19:18:45.187Z,97687.97
2022-09-26T19:23:49.471Z,97703.72
2022-09-26T19:28:52.998Z,97691.06
2022-09-26T19:33:58.402Z,97693.16
2022-09-26T19:39:01.377Z,97691.59
2022-09-26T19:44:05.256Z,97684.19
2022-09-26T19:49:17.341Z,97678.66
2022-09-26T19:54:20.998Z,97672.34
2022-09-26T19:59:27.514Z,97667.25
2022-09-26T20:04:32.166Z,97654.41
2022-09-26T20:09:35.159Z,97655.75
2022-09-26T20:14:38.602Z,97644.22
2022-09-26T20:19:45.981Z,97650.34
2022-09-26T20:24:52.641Z,97651.44
2022-09-26T20:30:13.696Z,97646.97
2022-09-26T20:35:18.547Z,97640.38
2022-09-26T20:40:24.221Z,97635.56
2022-09-26T20:45:31.740Z,97637.25
2022-09-26T20:50:39.238Z,97633.81
2022-09-26T20:55:44.273Z,97626.16
2022-09-26T21:00:47.860Z,97622.22
2022-09-26T21:05:52.273Z,97618.38
2022-09-26T21:10:56.048Z,97610.50
2022-09-26T21:15:59.131Z,97610.25
2022-09-26T21:21:06.991Z,97607.28
2022-09-26T21:26:24.699Z,97603.69
2022-09-26T21:31:30.757Z,97597.59
2022-09-26T21:36:39.405Z,97585.88
2022-09-26T21:41:42.404Z,97588.19
2022-09-26T21:46:45.786Z,97583.31
2022-09-26T21:51:55.210Z,97578.50
2022-09-26T21:57:05.075Z,97568.00
2022-09-26T22:02:08.141Z,97565.03
2022-09-26T22:07:12.568Z,97556.69
2022-09-26T22:12:15.496Z,97547.44
2022-09-26T22:17:18.621Z,97531.50
2022-09-26T22:22:23.034Z,97516.72
2022-09-26T22:27:26.019Z,97511.56
2022-09-26T22:32:29.057Z,97501.13
2022-09-26T22:37:33.903Z,97478.66
2022-09-26T22:42:36.985Z,97465.75
2022-09-26T22:47:39.979Z,97464.22
2022-09-26T22:52:44.348Z,97447.94
2022-09-26T22:57:50.961Z,97433.31
2022-09-26T23:02:54.046Z,97422.38
2022-09-26T23:07:58.476Z,97422.03
2022-09-26T23:13:01.454Z,97412.38
2022-09-26T23:18:04.468Z,97392.13
2022-09-26T23:23:10.832Z,97388.66
2022-09-26T23:28:13.887Z,97382.25
2022-09-26T23:33:16.887Z,97389.19
2022-09-26T23:38:21.216Z,97382.69
2022-09-26T23:43:24.687Z,97383.75
2022-09-26T23:48:27.734Z,97363.28
2022-09-26T23:53:32.568Z,97361.69
2022-09-26T23:58:35.779Z,97367.22
